Grulla, Texas
Current Conditions -  °F | °C
As of 4:18 PM on Tuesday 21 Oct 2014 (Local Time) from KMFE Reporting Station
Light Rain Light Rain  
Wind Chill: 73°   Ceiling: 4400
Heat Index: 73°   Visibility: 9mi
Dew Point: 72°   Wind: 7mph
Humidity: 94%   Direction: 170°S
Pressure: 29.93"   Gusts: NA
Location:  26.27°N, 98.65°W
Report Text: KMFE 212118Z 17006KT 9SM -RA SCT020 BKN044 OVC100 23/22 A2993 RMK AO2 RAB04 P0000
Loading
Personal Weather Stations






























Interactive Weather Map
Tropical Storm Tracking
New forecast layout! Learn more

10-Day Weather Forecast

Advertisements
Track Severe Weather on mobile